Time;durP1;ratioP1;P1;durP2;ratioP2;P2;SDS_P1;SDS_P2;PMS_P1;PMS_P2;Temp;Humidity;BMP_temperature;BMP_pressure;BME280_temperature;BME280_humidity;BME280_pressure;Samples;Min_cycle;Max_cycle;Signal;HPM_P1;HPM_P2
2023/07/16 00:01:04;;;;;;;2.15;1.40;;;19.50;99.90;;;;;;4959266;28;20498;-77
2023/07/16 00:03:29;;;;;;;2.85;1.08;;;19.60;99.90;;;;;;4967541;28;20099;-76
2023/07/16 00:05:55;;;;;;;2.50;1.20;;;19.60;99.90;;;;;;4957521;28;20048;-77
2023/07/16 00:08:20;;;;;;;3.13;1.38;;;19.60;99.90;;;;;;4960334;28;20497;-77
2023/07/16 00:10:46;;;;;;;2.42;1.17;;;19.60;99.90;;;;;;4958105;28;20088;-76
2023/07/16 00:13:11;;;;;;;2.03;1.27;;;19.50;99.90;;;;;;4994531;28;20023;-76
2023/07/16 00:15:37;;;;;;;0.77;0.77;;;19.50;99.90;;;;;;4966229;28;20049;-76
2023/07/16 00:18:03;;;;;;;1.10;1.00;;;19.40;99.90;;;;;;4984146;28;20533;-76
2023/07/16 00:20:28;;;;;;;2.47;1.45;;;19.40;99.90;;;;;;4962444;28;20494;-76
2023/07/16 00:22:54;;;;;;;3.20;1.30;;;19.40;99.90;;;;;;4982019;28;20457;-76
2023/07/16 00:25:20;;;;;;;2.95;1.38;;;19.40;99.90;;;;;;4972348;28;20490;-77
2023/07/16 00:27:46;;;;;;;1.58;1.33;;;19.40;99.90;;;;;;4955376;28;20486;-77
2023/07/16 00:30:11;;;;;;;5.30;1.25;;;19.40;99.90;;;;;;4972860;28;20038;-78
2023/07/16 00:32:37;;;;;;;3.38;1.65;;;19.30;99.90;;;;;;4965610;28;20488;-77
2023/07/16 00:35:03;;;;;;;2.40;1.42;;;19.30;99.90;;;;;;4947647;28;20089;-77
2023/07/16 00:37:28;;;;;;;3.70;1.55;;;19.40;99.90;;;;;;4963414;28;20093;-77
2023/07/16 00:39:54;;;;;;;1.92;1.10;;;19.30;99.90;;;;;;4965956;28;20050;-77
2023/07/16 00:42:19;;;;;;;2.42;1.70;;;19.30;99.90;;;;;;4968398;28;20038;-77
2023/07/16 00:44:45;;;;;;;1.65;1.35;;;19.20;99.90;;;;;;4961976;28;20030;-77
2023/07/16 00:47:11;;;;;;;3.13;1.50;;;19.30;99.90;;;;;;4980132;28;20152;-77
2023/07/16 00:49:37;;;;;;;2.05;1.60;;;19.20;99.90;;;;;;4943123;28;20054;-78
2023/07/16 00:52:03;;;;;;;4.82;1.80;;;19.30;99.90;;;;;;4967183;28;20041;-78
2023/07/16 00:54:29;;;;;;;2.25;1.40;;;19.20;99.90;;;;;;4967215;28;20034;-77
2023/07/16 00:56:55;;;;;;;6.22;1.85;;;19.00;99.90;;;;;;4955005;28;20035;-77
2023/07/16 00:59:21;;;;;;;3.70;2.05;;;19.10;99.90;;;;;;4968051;28;20473;-78
2023/07/16 01:01:46;;;;;;;6.55;1.60;;;19.10;99.90;;;;;;4955602;28;20034;-77
2023/07/16 01:04:12;;;;;;;2.88;1.08;;;19.10;99.90;;;;;;4959589;28;20038;-77
2023/07/16 01:06:41;;;;;;;3.75;1.55;;;19.20;99.90;;;;;;4946877;28;20062;-77
2023/07/16 01:09:17;;;;;;;2.20;1.35;;;19.30;99.90;;;;;;4953797;28;20043;-77
2023/07/16 01:11:43;;;;;;;3.88;1.27;;;19.20;99.90;;;;;;4964352;28;20027;-78
2023/07/16 01:14:09;;;;;;;4.15;1.23;;;19.10;99.90;;;;;;4965488;28;20033;-77
2023/07/16 01:16:34;;;;;;;8.65;1.73;;;19.10;99.90;;;;;;4954959;28;20104;-77
2023/07/16 01:19:00;;;;;;;1.90;1.38;;;18.90;99.90;;;;;;4968918;28;20173;-78
2023/07/16 01:21:28;;;;;;;5.15;1.40;;;18.90;99.90;;;;;;4959827;28;20038;-78
2023/07/16 01:24:13;;;;;;;5.53;1.38;;;18.90;99.90;;;;;;4960657;28;20614;-77
2023/07/16 01:26:53;;;;;;;1.75;1.17;;;18.90;99.90;;;;;;4965652;28;20377;-77
2023/07/16 01:29:33;;;;;;;4.07;1.25;;;18.90;99.90;;;;;;4997088;28;20521;-77
2023/07/16 01:32:00;;;;;;;3.63;1.33;;;19.00;99.90;;;;;;4965788;28;20418;-77
2023/07/16 01:34:26;;;;;;;2.85;1.23;;;18.90;99.90;;;;;;4952341;28;20039;-77
2023/07/16 01:36:52;;;;;;;3.33;1.27;;;18.80;99.90;;;;;;4959770;28;20045;-77
2023/07/16 01:39:17;;;;;;;1.40;1.05;;;18.70;99.90;;;;;;4967658;28;20055;-77
2023/07/16 01:41:43;;;;;;;1.58;1.20;;;18.70;99.90;;;;;;4957033;28;20092;-77
2023/07/16 01:44:08;;;;;;;5.75;1.63;;;18.80;99.90;;;;;;4978772;28;20105;-78
2023/07/16 01:46:34;;;;;;;2.60;1.30;;;18.80;99.90;;;;;;4962360;28;20070;-75
2023/07/16 01:48:59;;;;;;;2.42;1.40;;;18.70;99.90;;;;;;4978865;28;20476;-75
2023/07/16 01:51:25;;;;;;;3.45;1.48;;;18.70;99.90;;;;;;4962182;28;20389;-76
2023/07/16 01:53:50;;;;;;;5.40;1.67;;;18.70;99.90;;;;;;4962993;28;20502;-76
2023/07/16 01:56:16;;;;;;;4.13;1.52;;;18.70;99.90;;;;;;4949620;28;20494;-76
2023/07/16 01:58:42;;;;;;;4.10;1.27;;;18.70;99.90;;;;;;4947568;28;20101;-76
2023/07/16 02:01:07;;;;;;;3.30;1.50;;;18.60;99.90;;;;;;4964493;28;20054;-76
2023/07/16 02:03:33;;;;;;;5.85;1.40;;;18.70;99.90;;;;;;4962421;28;20344;-76
2023/07/16 02:05:58;;;;;;;3.63;1.75;;;18.80;99.90;;;;;;4971172;28;20098;-76
2023/07/16 02:08:24;;;;;;;2.78;1.50;;;18.80;99.90;;;;;;4968529;28;20042;-76
2023/07/16 02:10:49;;;;;;;1.63;1.52;;;18.70;99.90;;;;;;4966317;28;20032;-76
2023/07/16 02:13:15;;;;;;;1.63;1.42;;;18.90;99.90;;;;;;4962819;28;20133;-76
2023/07/16 02:15:41;;;;;;;4.32;1.58;;;18.70;99.90;;;;;;4961516;28;20041;-77
2023/07/16 02:18:06;;;;;;;4.93;1.67;;;18.70;99.90;;;;;;4970344;28;20035;-76
2023/07/16 02:20:32;;;;;;;3.95;1.85;;;18.80;99.90;;;;;;4981630;28;20117;-77
2023/07/16 02:22:58;;;;;;;2.53;1.35;;;18.80;99.90;;;;;;4949037;28;20069;-77
2023/07/16 02:25:23;;;;;;;2.22;1.40;;;18.80;99.90;;;;;;4961049;28;20054;-77
2023/07/16 02:27:49;;;;;;;5.72;1.73;;;18.70;99.90;;;;;;4940034;28;20030;-77
2023/07/16 02:30:15;;;;;;;3.90;1.52;;;18.80;99.90;;;;;;4966048;28;20038;-76
2023/07/16 02:32:40;;;;;;;2.05;1.55;;;18.80;99.90;;;;;;4976305;28;20065;-76
2023/07/16 02:35:07;;;;;;;2.10;1.27;;;18.90;99.90;;;;;;4971171;28;20478;-77
2023/07/16 02:37:32;;;;;;;2.78;1.60;;;18.80;99.90;;;;;;4980986;28;20667;-77
2023/07/16 02:39:58;;;;;;;2.22;1.45;;;18.80;99.90;;;;;;4994923;28;20034;-76
2023/07/16 02:42:24;;;;;;;1.08;0.90;;;18.80;99.90;;;;;;4950654;28;20030;-77
2023/07/16 02:44:49;;;;;;;3.05;1.50;;;18.80;99.90;;;;;;4963908;28;20019;-76
2023/07/16 02:47:15;;;;;;;4.03;1.40;;;18.80;99.90;;;;;;4951863;28;20026;-77
2023/07/16 02:49:40;;;;;;;3.08;1.40;;;18.90;99.90;;;;;;4968887;28;20449;-76
2023/07/16 02:52:07;;;;;;;2.72;1.35;;;18.90;99.90;;;;;;4969313;28;20039;-77
2023/07/16 02:54:34;;;;;;;3.70;1.70;;;18.90;99.90;;;;;;4972416;28;20031;-77
2023/07/16 02:57:00;;;;;;;2.28;1.25;;;18.90;99.90;;;;;;4974030;28;20102;-76
2023/07/16 02:59:26;;;;;;;6.57;1.92;;;18.80;99.90;;;;;;4963952;28;20117;-76
2023/07/16 03:01:51;;;;;;;2.95;1.23;;;18.80;99.90;;;;;;4967675;28;20031;-76
2023/07/16 03:04:17;;;;;;;3.85;1.90;;;18.90;99.90;;;;;;4963857;28;20034;-76
2023/07/16 03:06:42;;;;;;;3.03;1.65;;;18.90;99.90;;;;;;4960382;28;20494;-76
2023/07/16 03:09:08;;;;;;;4.53;2.20;;;18.90;99.90;;;;;;4969451;28;20108;-76
2023/07/16 03:11:33;;;;;;;5.75;1.27;;;18.90;99.90;;;;;;4966548;28;20031;-76
2023/07/16 03:13:59;;;;;;;5.10;1.83;;;18.90;99.90;;;;;;4977865;28;20045;-76
2023/07/16 03:16:24;;;;;;;7.15;1.50;;;18.70;99.90;;;;;;4945045;28;20039;-76
2023/07/16 03:18:50;;;;;;;5.22;1.55;;;18.70;99.90;;;;;;4959690;28;20061;-77
2023/07/16 03:21:16;;;;;;;2.20;0.98;;;18.60;99.90;;;;;;4977652;28;20039;-76
2023/07/16 03:23:41;;;;;;;2.75;1.40;;;18.60;99.90;;;;;;4965127;28;20654;-76
2023/07/16 03:26:07;;;;;;;6.57;1.88;;;18.60;99.90;;;;;;4964589;28;20038;-76
2023/07/16 03:28:32;;;;;;;1.60;1.10;;;18.50;99.90;;;;;;4964453;28;20089;-76
2023/07/16 03:30:58;;;;;;;5.57;1.73;;;18.50;99.90;;;;;;4979662;28;20034;-76
2023/07/16 03:33:23;;;;;;;3.78;1.65;;;18.40;99.90;;;;;;4966578;28;20041;-75
2023/07/16 03:35:49;;;;;;;5.80;1.63;;;18.50;99.90;;;;;;4961471;28;20030;-76
2023/07/16 03:38:15;;;;;;;6.63;1.60;;;18.40;99.90;;;;;;4980383;28;20042;-77
2023/07/16 03:40:42;;;;;;;5.15;1.70;;;18.40;99.90;;;;;;4963037;28;20502;-75
2023/07/16 03:43:08;;;;;;;7.20;2.10;;;18.30;99.90;;;;;;4974479;28;20743;-75
2023/07/16 03:45:33;;;;;;;2.85;1.25;;;18.30;99.90;;;;;;4947324;28;20030;-76
2023/07/16 03:47:59;;;;;;;4.18;1.42;;;18.30;99.90;;;;;;4980239;28;22766;-76
2023/07/16 03:50:24;;;;;;;2.40;1.40;;;18.10;99.90;;;;;;4964872;28;20027;-76
2023/07/16 03:52:50;;;;;;;3.50;1.58;;;18.10;99.90;;;;;;4964878;28;20445;-75
2023/07/16 03:55:16;;;;;;;2.83;1.40;;;18.10;99.90;;;;;;4944684;28;20550;-76
2023/07/16 03:57:42;;;;;;;7.68;1.77;;;18.10;99.90;;;;;;4960542;28;20031;-76
2023/07/16 04:00:09;;;;;;;2.78;1.23;;;18.10;99.90;;;;;;4965862;28;20043;-76
2023/07/16 04:02:35;;;;;;;4.22;0.80;;;18.10;99.90;;;;;;4955554;28;20414;-77
2023/07/16 04:05:00;;;;;;;5.70;1.40;;;18.00;99.90;;;;;;4980140;28;20037;-76
2023/07/16 04:07:26;;;;;;;5.15;1.88;;;18.10;99.90;;;;;;4956564;28;20043;-76
2023/07/16 04:09:51;;;;;;;3.42;1.52;;;18.00;99.90;;;;;;4955099;28;20150;-76
2023/07/16 04:12:17;;;;;;;5.63;2.17;;;18.00;99.90;;;;;;4950877;28;20126;-76
2023/07/16 04:14:42;;;;;;;4.07;2.00;;;18.00;99.90;;;;;;4946888;28;20469;-76
2023/07/16 04:17:08;;;;;;;3.92;1.80;;;18.00;99.90;;;;;;4966471;28;20045;-76
2023/07/16 04:19:34;;;;;;;5.70;1.67;;;18.10;99.90;;;;;;4966217;28;20038;-76
2023/07/16 04:21:59;;;;;;;6.13;1.40;;;18.20;99.90;;;;;;4977273;28;20062;-76
2023/07/16 04:24:26;;;;;;;3.90;1.38;;;18.10;99.90;;;;;;4969733;28;20159;-75
2023/07/16 04:26:53;;;;;;;2.25;1.70;;;18.20;99.90;;;;;;4982061;28;20577;-76
2023/07/16 04:29:18;;;;;;;5.03;1.25;;;18.20;99.90;;;;;;4958883;28;20034;-76
2023/07/16 04:31:44;;;;;;;5.60;1.75;;;18.20;99.90;;;;;;4956648;28;20118;-76
2023/07/16 04:34:09;;;;;;;2.05;1.23;;;18.30;99.90;;;;;;4965755;28;20043;-76
2023/07/16 04:36:35;;;;;;;3.28;1.55;;;18.30;99.90;;;;;;4967252;28;20042;-76
2023/07/16 04:39:01;;;;;;;6.65;2.08;;;18.30;99.90;;;;;;4998625;28;20022;-76
2023/07/16 04:41:27;;;;;;;4.32;1.85;;;18.30;99.90;;;;;;4963032;28;20031;-76
2023/07/16 04:43:52;;;;;;;3.33;1.30;;;18.40;99.90;;;;;;4953221;28;20507;-76
2023/07/16 04:46:18;;;;;;;7.53;1.55;;;18.40;99.90;;;;;;4945658;28;20608;-76
2023/07/16 04:48:43;;;;;;;2.60;1.70;;;18.40;99.90;;;;;;4965111;28;20517;-76
2023/07/16 04:51:09;;;;;;;4.30;1.65;;;18.50;99.90;;;;;;4959638;28;20371;-76
2023/07/16 04:53:34;;;;;;;4.15;1.73;;;18.60;99.90;;;;;;4960658;28;20693;-76
2023/07/16 04:56:00;;;;;;;8.38;2.28;;;18.60;99.90;;;;;;4972958;28;20058;-76
2023/07/16 04:58:25;;;;;;;2.42;1.25;;;18.60;99.90;;;;;;4964557;28;20398;-76
2023/07/16 05:00:51;;;;;;;6.82;1.70;;;18.70;99.90;;;;;;4967892;28;20397;-76
2023/07/16 05:03:16;;;;;;;8.70;2.05;;;18.60;99.90;;;;;;4950745;28;20043;-76
2023/07/16 05:05:42;;;;;;;5.18;1.77;;;18.70;99.90;;;;;;4957280;28;20027;-76
2023/07/16 05:08:08;;;;;;;5.20;1.80;;;18.80;99.90;;;;;;4977867;28;20058;-76
2023/07/16 05:10:33;;;;;;;6.68;2.00;;;19.00;99.90;;;;;;4964841;28;20027;-76
2023/07/16 05:12:59;;;;;;;13.30;2.20;;;18.90;99.90;;;;;;4981678;28;20142;-76
2023/07/16 05:15:24;;;;;;;4.35;1.60;;;19.20;99.90;;;;;;4953222;28;20181;-76
2023/07/16 05:17:50;;;;;;;8.75;2.22;;;19.10;99.90;;;;;;4963921;28;20018;-76
2023/07/16 05:20:16;;;;;;;10.77;1.80;;;19.10;99.90;;;;;;4961006;28;20386;-77
2023/07/16 05:22:41;;;;;;;7.13;2.00;;;19.20;99.60;;;;;;4960334;28;20429;-76
2023/07/16 05:25:07;;;;;;;7.95;2.30;;;19.20;99.40;;;;;;4961164;28;20106;-75
2023/07/16 05:27:33;;;;;;;11.50;2.90;;;19.30;99.20;;;;;;4994413;28;20097;-76
2023/07/16 05:29:58;;;;;;;4.95;1.33;;;19.50;99.90;;;;;;4957517;28;20042;-76
2023/07/16 05:32:24;;;;;;;6.40;2.33;;;19.60;98.70;;;;;;4956777;28;20694;-76
2023/07/16 05:34:50;;;;;;;5.80;1.90;;;19.50;98.60;;;;;;4976809;28;20501;-76
2023/07/16 05:37:15;;;;;;;9.38;2.17;;;19.70;98.30;;;;;;4963475;28;20068;-76
2023/07/16 05:39:41;;;;;;;7.22;2.50;;;19.80;97.60;;;;;;4962404;28;20038;-76
2023/07/16 05:42:07;;;;;;;4.15;1.60;;;19.80;98.30;;;;;;4971146;28;20057;-76
2023/07/16 05:44:33;;;;;;;5.88;2.00;;;19.80;97.30;;;;;;4980927;28;20093;-76
2023/07/16 05:46:58;;;;;;;5.40;2.00;;;19.90;97.40;;;;;;4997222;28;20034;-76
2023/07/16 05:49:25;;;;;;;5.95;2.08;;;20.00;97.10;;;;;;4958520;28;20038;-76
2023/07/16 05:51:51;;;;;;;3.58;1.98;;;20.00;96.80;;;;;;4974850;28;20097;-76
2023/07/16 05:54:16;;;;;;;7.72;1.75;;;20.20;96.70;;;;;;4951931;28;20043;-76
2023/07/16 05:56:42;;;;;;;2.10;1.20;;;20.30;96.80;;;;;;4974758;28;20605;-76
2023/07/16 05:59:08;;;;;;;6.85;2.28;;;20.20;95.30;;;;;;4992477;28;20121;-76
2023/07/16 06:01:33;;;;;;;6.53;2.13;;;20.00;95.60;;;;;;4969564;28;20080;-76
2023/07/16 06:03:59;;;;;;;8.07;2.08;;;20.00;95.60;;;;;;4960261;28;20039;-77
2023/07/16 06:06:27;;;;;;;10.30;2.53;;;20.20;96.00;;;;;;4944880;28;20030;-76
2023/07/16 06:08:53;;;;;;;8.55;2.60;;;20.40;94.90;;;;;;4946864;28;20527;-76
2023/07/16 06:11:18;;;;;;;9.38;3.30;;;20.40;94.70;;;;;;4965501;28;20034;-77
2023/07/16 06:13:44;;;;;;;6.78;1.85;;;20.30;94.70;;;;;;4947868;28;20376;-79
2023/07/16 06:16:09;;;;;;;5.95;2.08;;;20.50;94.00;;;;;;4936536;28;20031;-76
2023/07/16 06:18:35;;;;;;;4.45;2.00;;;20.10;94.10;;;;;;4948255;28;20261;-77
2023/07/16 06:21:00;;;;;;;7.40;3.25;;;20.00;94.10;;;;;;4970701;28;20027;-76
2023/07/16 06:23:26;;;;;;;2.67;1.55;;;20.50;93.80;;;;;;4964130;28;20066;-78
2023/07/16 06:25:55;;;;;;;7.53;3.20;;;20.40;93.00;;;;;;4978864;28;20089;-78
2023/07/16 06:28:21;;;;;;;6.97;2.20;;;20.70;92.90;;;;;;4961601;28;20056;-76
2023/07/16 06:30:46;;;;;;;5.65;3.03;;;20.80;92.00;;;;;;4965182;28;20509;-76
2023/07/16 06:33:12;;;;;;;10.80;3.20;;;20.90;91.70;;;;;;4952841;28;20403;-76
2023/07/16 06:35:37;;;;;;;5.28;3.13;;;21.00;91.60;;;;;;4956124;28;20065;-76
2023/07/16 06:38:04;;;;;;;4.57;2.85;;;21.00;91.90;;;;;;4975651;28;20027;-76
2023/07/16 06:40:30;;;;;;;14.25;5.53;;;21.30;91.50;;;;;;4938617;28;20027;-76
2023/07/16 06:42:55;;;;;;;5.53;1.55;;;21.20;90.50;;;;;;4962932;28;20026;-76
2023/07/16 06:45:21;;;;;;;12.68;2.30;;;21.30;90.40;;;;;;4962808;28;20585;-76
2023/07/16 06:47:48;;;;;;;5.07;2.78;;;21.10;90.00;;;;;;4976396;28;20031;-76
2023/07/16 06:50:13;;;;;;;8.52;3.65;;;21.10;90.10;;;;;;4952266;28;20130;-77
2023/07/16 06:52:39;;;;;;;5.85;3.00;;;21.70;90.70;;;;;;4948706;28;20059;-76
2023/07/16 06:55:05;;;;;;;7.78;3.53;;;22.30;90.30;;;;;;4956813;28;20070;-76
2023/07/16 06:57:30;;;;;;;6.93;2.38;;;21.90;90.00;;;;;;4958623;28;20069;-77
2023/07/16 06:59:56;;;;;;;2.85;2.20;;;22.10;89.10;;;;;;4963405;28;20038;-76
2023/07/16 07:02:22;;;;;;;8.07;3.10;;;22.00;85.70;;;;;;4961004;28;20093;-76
2023/07/16 07:04:47;;;;;;;5.78;2.05;;;21.70;85.70;;;;;;4952303;28;20046;-75
2023/07/16 07:07:13;;;;;;;5.88;3.20;;;21.70;85.00;;;;;;4977915;28;20035;-76
2023/07/16 07:09:38;;;;;;;10.63;4.07;;;22.00;85.30;;;;;;4950306;28;20035;-76
2023/07/16 07:12:04;;;;;;;5.93;2.47;;;22.40;84.70;;;;;;4981465;28;20034;-76
2023/07/16 07:14:31;;;;;;;6.70;2.67;;;22.00;82.80;;;;;;4963096;28;20034;-76
2023/07/16 07:16:57;;;;;;;8.48;4.00;;;21.90;82.90;;;;;;4981023;28;20490;-76
2023/07/16 07:19:22;;;;;;;5.90;3.28;;;22.50;83.20;;;;;;4961573;28;20038;-76
2023/07/16 07:21:48;;;;;;;4.38;2.28;;;22.50;81.10;;;;;;4960731;28;20093;-76
2023/07/16 07:24:13;;;;;;;5.72;3.47;;;22.20;81.00;;;;;;4958425;28;20035;-76
2023/07/16 07:26:39;;;;;;;8.77;3.85;;;22.40;82.30;;;;;;4962576;28;20509;-76
2023/07/16 07:29:04;;;;;;;7.47;4.13;;;22.20;80.80;;;;;;4963878;28;20046;-76
2023/07/16 07:31:30;;;;;;;7.18;3.10;;;22.30;80.20;;;;;;4965001;28;20073;-76
2023/07/16 07:33:57;;;;;;;6.50;3.15;;;22.70;80.60;;;;;;4961242;28;20035;-77
2023/07/16 07:36:22;;;;;;;5.90;2.40;;;22.40;79.20;;;;;;4947204;28;20092;-76
2023/07/16 07:38:48;;;;;;;7.10;3.22;;;22.70;78.60;;;;;;4976205;28;20043;-77
2023/07/16 07:41:14;;;;;;;8.93;3.90;;;22.60;77.80;;;;;;4964070;28;20031;-76
2023/07/16 07:43:39;;;;;;;6.88;3.00;;;22.90;77.70;;;;;;4962005;28;20039;-77
2023/07/16 07:46:05;;;;;;;6.22;2.42;;;23.10;76.30;;;;;;4972111;28;20050;-76
2023/07/16 07:48:31;;;;;;;12.93;3.88;;;23.50;77.20;;;;;;4962830;28;20043;-77
2023/07/16 07:50:57;;;;;;;7.80;3.42;;;23.80;76.60;;;;;;4950660;28;20022;-77
2023/07/16 07:53:22;;;;;;;3.97;2.15;;;23.90;75.70;;;;;;4963455;28;20129;-77
2023/07/16 07:55:48;;;;;;;4.18;2.63;;;23.90;76.20;;;;;;4961936;28;20041;-79
2023/07/16 07:58:14;;;;;;;9.05;4.05;;;24.10;74.30;;;;;;4950604;28;20490;-79
2023/07/16 08:00:39;;;;;;;8.95;3.60;;;24.20;76.20;;;;;;4968151;28;20030;-79
2023/07/16 08:03:05;;;;;;;3.70;2.05;;;24.30;74.00;;;;;;4983027;28;20033;-78
2023/07/16 08:05:30;;;;;;;5.45;3.28;;;24.20;73.20;;;;;;4966683;28;20084;-75
2023/07/16 08:07:56;;;;;;;9.43;2.33;;;24.20;73.50;;;;;;4996091;28;20121;-75
2023/07/16 08:10:22;;;;;;;10.13;4.15;;;24.50;73.60;;;;;;4977779;28;20042;-77
2023/07/16 08:12:48;;;;;;;6.43;3.83;;;24.80;72.80;;;;;;4956910;28;20039;-78
2023/07/16 08:15:14;;;;;;;8.23;3.38;;;24.70;72.40;;;;;;4955097;28;20033;-78
2023/07/16 08:17:43;;;;;;;10.20;3.08;;;24.60;70.50;;;;;;4964289;28;20034;-78
2023/07/16 08:20:12;;;;;;;6.50;2.63;;;24.80;70.50;;;;;;4965462;28;20513;-76
2023/07/16 08:22:38;;;;;;;4.63;2.78;;;25.10;69.90;;;;;;4959656;28;20051;-76
2023/07/16 08:25:04;;;;;;;4.57;1.77;;;24.40;69.50;;;;;;4983126;28;20439;-76
2023/07/16 08:27:30;;;;;;;5.35;2.72;;;24.50;69.80;;;;;;4968570;28;20045;-76
2023/07/16 08:29:55;;;;;;;4.32;2.53;;;24.40;68.70;;;;;;4966157;28;20402;-78
2023/07/16 08:32:21;;;;;;;8.00;3.72;;;25.40;71.10;;;;;;4947930;28;20133;-77
2023/07/16 08:34:47;;;;;;;5.20;2.97;;;25.70;69.90;;;;;;4966802;28;20039;-76
2023/07/16 08:37:13;;;;;;;9.02;3.92;;;25.70;66.40;;;;;;4978381;28;20027;-76
2023/07/16 08:39:39;;;;;;;6.05;2.88;;;25.70;67.00;;;;;;4964200;28;20039;-78
2023/07/16 08:42:05;;;;;;;6.93;2.63;;;25.90;66.10;;;;;;4965652;28;20776;-78
2023/07/16 08:44:31;;;;;;;7.50;2.85;;;25.70;64.90;;;;;;4968221;28;20037;-78
2023/07/16 08:46:57;;;;;;;6.97;3.28;;;25.70;65.50;;;;;;4973773;28;20038;-78
2023/07/16 08:49:23;;;;;;;5.72;2.63;;;26.00;64.50;;;;;;4966927;28;20046;-77
2023/07/16 08:51:48;;;;;;;4.25;2.28;;;26.20;64.20;;;;;;4966070;28;20030;-76
2023/07/16 08:54:18;;;;;;;3.15;2.03;;;26.00;63.40;;;;;;4965791;28;20093;-75
2023/07/16 08:56:44;;;;;;;4.93;2.72;;;26.10;63.70;;;;;;4951147;28;20492;-78
2023/07/16 08:59:10;;;;;;;5.88;2.53;;;26.30;63.10;;;;;;4964567;28;20256;-77
2023/07/16 09:01:37;;;;;;;3.03;1.55;;;26.20;62.20;;;;;;4967034;28;20058;-75
2023/07/16 09:04:02;;;;;;;6.28;3.78;;;26.30;62.70;;;;;;4967747;28;20488;-77
2023/07/16 09:06:28;;;;;;;2.95;2.15;;;26.50;62.80;;;;;;4966118;28;20041;-77
2023/07/16 09:08:55;;;;;;;6.38;2.97;;;26.20;61.30;;;;;;4971617;28;20045;-76
2023/07/16 09:11:21;;;;;;;5.38;2.95;;;26.10;62.40;;;;;;4942283;28;20732;-78
2023/07/16 09:13:47;;;;;;;5.85;2.55;;;26.00;61.00;;;;;;4956473;28;20035;-77
2023/07/16 09:16:16;;;;;;;6.63;2.17;;;26.60;60.60;;;;;;4965645;28;20490;-76
2023/07/16 09:18:42;;;;;;;5.45;2.58;;;26.90;60.20;;;;;;4965140;28;20557;-76
2023/07/16 09:21:07;;;;;;;6.32;3.53;;;27.10;60.10;;;;;;4981574;28;20083;-76
2023/07/16 09:23:33;;;;;;;6.70;3.00;;;27.10;59.10;;;;;;4979869;28;20110;-77
2023/07/16 09:25:58;;;;;;;2.53;1.55;;;27.00;59.40;;;;;;4977227;28;20042;-77
2023/07/16 09:28:24;;;;;;;3.38;1.95;;;26.90;58.30;;;;;;4966511;28;20040;-77
2023/07/16 09:30:50;;;;;;;3.00;2.28;;;26.50;59.70;;;;;;4979100;28;20034;-76
2023/07/16 09:33:21;;;;;;;10.07;2.60;;;26.10;59.30;;;;;;4976781;28;20116;-77
2023/07/16 09:35:49;;;;;;;4.20;2.72;;;26.40;59.50;;;;;;4963013;28;20043;-76
2023/07/16 09:38:16;;;;;;;3.70;1.67;;;26.70;59.90;;;;;;4967916;28;20109;-77
2023/07/16 09:40:44;;;;;;;7.10;2.78;;;26.90;58.90;;;;;;4951276;28;20045;-76
2023/07/16 09:43:13;;;;;;;5.75;2.83;;;26.70;59.10;;;;;;4980020;28;20394;-77
2023/07/16 09:45:38;;;;;;;13.20;2.67;;;27.10;58.50;;;;;;4981488;28;20030;-76
2023/07/16 09:48:04;;;;;;;4.25;2.97;;;27.10;57.20;;;;;;4978381;28;20505;-76
2023/07/16 09:50:33;;;;;;;4.68;2.20;;;26.80;57.70;;;;;;4961964;28;20143;-78
2023/07/16 09:52:59;;;;;;;4.53;1.83;;;26.90;57.80;;;;;;4981960;28;20097;-76
2023/07/16 09:55:25;;;;;;;7.45;3.10;;;27.00;57.00;;;;;;4963738;28;20488;-76
2023/07/16 09:57:52;;;;;;;10.52;4.10;;;26.80;58.20;;;;;;4962473;28;20042;-76
2023/07/16 10:00:20;;;;;;;5.30;2.47;;;26.90;57.90;;;;;;4974192;28;20586;-76
2023/07/16 10:02:46;;;;;;;5.70;2.40;;;27.70;57.50;;;;;;4955044;28;20490;-76
2023/07/16 10:05:17;;;;;;;4.55;1.85;;;28.10;56.20;;;;;;4976994;28;20046;-76
2023/07/16 10:07:49;;;;;;;4.70;2.28;;;27.80;56.60;;;;;;4950935;28;20035;-76
2023/07/16 10:10:17;;;;;;;5.95;2.25;;;27.90;56.60;;;;;;4950610;28;20125;-77
2023/07/16 10:12:43;;;;;;;3.15;2.22;;;28.30;55.30;;;;;;4963338;28;20387;-77
2023/07/16 10:15:12;;;;;;;3.97;2.35;;;28.20;54.50;;;;;;4967516;28;20059;-76
2023/07/16 10:17:37;;;;;;;4.75;2.35;;;28.30;55.70;;;;;;4962443;28;20043;-77
2023/07/16 10:20:07;;;;;;;4.28;2.35;;;27.90;54.90;;;;;;4979731;28;20084;-77
2023/07/16 10:22:39;;;;;;;4.95;2.70;;;28.30;54.60;;;;;;4979264;28;20477;-77
2023/07/16 10:25:17;;;;;;;4.38;1.65;;;28.60;56.10;;;;;;4958747;28;20037;-77
2023/07/16 10:27:46;;;;;;;7.55;3.00;;;28.50;54.60;;;;;;4965608;28;20465;-77
2023/07/16 10:30:12;;;;;;;5.00;2.58;;;28.60;54.20;;;;;;4980117;28;20041;-77
2023/07/16 10:32:37;;;;;;;10.85;2.70;;;29.00;55.10;;;;;;4963817;28;20034;-78
2023/07/16 10:35:04;;;;;;;4.45;2.72;;;29.30;55.60;;;;;;4983249;28;20497;-77
2023/07/16 10:37:30;;;;;;;2.55;1.80;;;28.80;54.00;;;;;;4982798;28;20498;-77
2023/07/16 10:39:59;;;;;;;5.20;2.60;;;28.80;54.40;;;;;;5001771;28;20026;-77
2023/07/16 10:42:25;;;;;;;6.35;2.72;;;29.40;54.60;;;;;;4971120;28;20493;-78
2023/07/16 10:44:52;;;;;;;6.20;2.25;;;29.20;54.30;;;;;;4965699;28;20034;-77
2023/07/16 10:47:39;;;;;;;6.82;2.72;;;29.40;54.20;;;;;;4985204;28;20031;-78
2023/07/16 10:50:09;;;;;;;6.47;2.72;;;29.30;54.30;;;;;;4964501;28;20042;-77
2023/07/16 10:52:35;;;;;;;5.10;2.60;;;29.40;54.50;;;;;;4954095;28;20042;-77
2023/07/16 10:55:01;;;;;;;5.05;2.80;;;30.00;54.80;;;;;;4976226;28;20170;-77
2023/07/16 10:57:27;;;;;;;5.57;3.10;;;30.40;54.50;;;;;;4963615;28;20709;-78
2023/07/16 10:59:54;;;;;;;6.75;2.90;;;30.60;52.90;;;;;;4964512;28;20490;-77
2023/07/16 11:02:21;;;;;;;5.80;2.67;;;30.90;53.60;;;;;;4960446;28;20448;-78
2023/07/16 11:04:47;;;;;;;11.18;3.17;;;30.70;53.00;;;;;;4962962;28;20376;-78
2023/07/16 11:07:13;;;;;;;4.93;2.65;;;30.90;51.90;;;;;;4961937;28;20058;-79
2023/07/16 11:09:49;;;;;;;7.93;2.03;;;30.90;53.80;;;;;;4963942;28;20062;-79
2023/07/16 11:12:17;;;;;;;3.83;1.67;;;31.30;52.90;;;;;;4986803;28;21146;-76
2023/07/16 11:14:46;;;;;;;4.90;2.00;;;31.60;51.70;;;;;;4944392;28;20479;-75
2023/07/16 11:17:12;;;;;;;1.63;1.25;;;31.10;52.10;;;;;;4970161;28;20030;-77
2023/07/16 11:19:38;;;;;;;4.82;2.90;;;31.50;50.90;;;;;;4983166;28;20047;-77
2023/07/16 11:22:05;;;;;;;4.07;3.05;;;31.50;50.90;;;;;;4962821;28;20086;-77
2023/07/16 11:24:41;;;;;;;6.72;2.03;;;31.40;51.50;;;;;;4974598;28;20054;-77
2023/07/16 11:27:33;;;;;;;5.55;2.50;;;31.30;51.10;;;;;;4948428;28;20034;-77
2023/07/16 11:29:59;;;;;;;8.63;2.53;;;30.50;50.30;;;;;;4975570;28;20520;-78
2023/07/16 11:32:36;;;;;;;4.22;2.08;;;30.50;51.10;;;;;;4971504;28;20053;-79
2023/07/16 11:35:06;;;;;;;4.75;2.00;;;30.20;50.00;;;;;;4980139;28;20042;-78
2023/07/16 11:37:32;;;;;;;6.05;2.60;;;29.00;51.30;;;;;;4972942;28;20097;-77
2023/07/16 11:40:00;;;;;;;6.32;2.58;;;29.20;52.20;;;;;;4979241;28;20485;-78
2023/07/16 11:42:32;;;;;;;4.53;2.50;;;29.80;52.00;;;;;;4979450;28;20030;-76
2023/07/16 11:44:58;;;;;;;4.65;2.50;;;29.70;51.10;;;;;;5000115;28;20520;-77
2023/07/16 11:47:24;;;;;;;6.40;2.53;;;29.50;52.50;;;;;;4969597;28;20027;-76
2023/07/16 11:49:50;;;;;;;3.97;2.42;;;30.10;51.40;;;;;;4969560;28;20050;-77
2023/07/16 11:52:27;;;;;;;5.25;2.75;;;30.30;51.00;;;;;;4967626;28;20054;-79
2023/07/16 11:54:53;;;;;;;9.63;2.88;;;30.40;51.50;;;;;;4967094;28;20513;-78
2023/07/16 11:57:18;;;;;;;6.00;3.17;;;30.20;51.00;;;;;;4974172;28;20501;-78
2023/07/16 11:59:48;;;;;;;4.57;2.30;;;29.60;51.40;;;;;;4422212;28;10000633;-79
2023/07/16 12:02:14;;;;;;;7.60;3.25;;;29.40;51.20;;;;;;4965813;28;20306;-79
2023/07/16 12:04:39;;;;;;;7.80;2.55;;;29.40;51.80;;;;;;4940922;28;20031;-78
2023/07/16 12:07:06;;;;;;;7.10;3.05;;;29.40;52.10;;;;;;4973490;28;20382;-79
2023/07/16 12:09:32;;;;;;;4.95;2.65;;;29.50;52.00;;;;;;4962223;28;20506;-79
2023/07/16 12:11:57;;;;;;;9.38;2.95;;;29.40;52.10;;;;;;4979457;28;20092;-78
2023/07/16 12:14:23;;;;;;;6.22;2.47;;;29.20;51.40;;;;;;4968486;28;20049;-78
2023/07/16 12:16:48;;;;;;;3.08;1.92;;;28.80;52.50;;;;;;4959622;28;20359;-79
2023/07/16 12:19:14;;;;;;;6.65;2.78;;;29.20;52.00;;;;;;4956335;28;20521;-78
2023/07/16 12:21:39;;;;;;;5.93;3.40;;;29.00;51.90;;;;;;4954086;28;20053;-78
2023/07/16 12:24:05;;;;;;;7.30;2.28;;;29.10;52.60;;;;;;4956475;28;20212;-78
2023/07/16 12:26:31;;;;;;;8.05;2.97;;;29.00;52.00;;;;;;4980757;28;20027;-78
2023/07/16 12:28:56;;;;;;;3.67;2.22;;;28.90;52.20;;;;;;4992584;28;20121;-78
2023/07/16 12:31:22;;;;;;;7.07;2.95;;;29.10;52.30;;;;;;4948317;28;20347;-78
2023/07/16 12:33:47;;;;;;;6.18;2.58;;;29.00;52.70;;;;;;4955409;28;20030;-79
2023/07/16 12:36:13;;;;;;;5.70;2.47;;;28.80;52.80;;;;;;4951480;28;20540;-78
2023/07/16 12:38:39;;;;;;;6.03;2.47;;;28.80;52.60;;;;;;4947611;28;20035;-80
2023/07/16 12:41:05;;;;;;;5.40;1.77;;;28.70;52.80;;;;;;4965179;28;20474;-79